sensor_id;sensor_type;location;lat;lon;timestamp;P1;durP1;ratioP1;P2;durP2;ratioP2
80637;SDS011;69991;51.760;19.528;2023-07-30T00:01:22;4.40;;;2.50;;
80637;SDS011;69991;51.760;19.528;2023-07-30T00:03:51;5.70;;;2.60;;
80637;SDS011;69991;51.760;19.528;2023-07-30T00:06:20;5.10;;;2.30;;
80637;SDS011;69991;51.760;19.528;2023-07-30T00:08:49;4.70;;;2.50;;
80637;SDS011;69991;51.760;19.528;2023-07-30T00:11:19;4.90;;;2.90;;
80637;SDS011;69991;51.760;19.528;2023-07-30T00:13:48;4.30;;;2.70;;
80637;SDS011;69991;51.760;19.528;2023-07-30T00:16:17;5.20;;;2.90;;
80637;SDS011;69991;51.760;19.528;2023-07-30T00:18:46;4.20;;;2.60;;
80637;SDS011;69991;51.760;19.528;2023-07-30T00:21:15;4.70;;;2.40;;
80637;SDS011;69991;51.760;19.528;2023-07-30T00:23:45;5.40;;;2.50;;
80637;SDS011;69991;51.760;19.528;2023-07-30T00:26:14;5.20;;;2.70;;
80637;SDS011;69991;51.760;19.528;2023-07-30T00:28:43;5.10;;;3.10;;
80637;SDS011;69991;51.760;19.528;2023-07-30T00:31:12;5.40;;;2.70;;
80637;SDS011;69991;51.760;19.528;2023-07-30T00:33:41;4.70;;;2.70;;
80637;SDS011;69991;51.760;19.528;2023-07-30T00:36:10;5.00;;;2.50;;
80637;SDS011;69991;51.760;19.528;2023-07-30T00:38:39;5.00;;;2.70;;
80637;SDS011;69991;51.760;19.528;2023-07-30T00:41:08;6.60;;;2.50;;
80637;SDS011;69991;51.760;19.528;2023-07-30T00:43:38;4.20;;;2.50;;
80637;SDS011;69991;51.760;19.528;2023-07-30T00:46:07;5.50;;;3.00;;
80637;SDS011;69991;51.760;19.528;2023-07-30T00:48:36;4.60;;;2.70;;
80637;SDS011;69991;51.760;19.528;2023-07-30T00:51:06;4.70;;;2.80;;
80637;SDS011;69991;51.760;19.528;2023-07-30T00:53:35;4.60;;;3.10;;
80637;SDS011;69991;51.760;19.528;2023-07-30T00:56:06;6.10;;;2.80;;
80637;SDS011;69991;51.760;19.528;2023-07-30T00:58:35;4.10;;;2.60;;
80637;SDS011;69991;51.760;19.528;2023-07-30T01:01:05;5.00;;;3.20;;
80637;SDS011;69991;51.760;19.528;2023-07-30T01:03:34;5.10;;;3.00;;
80637;SDS011;69991;51.760;19.528;2023-07-30T01:06:03;4.60;;;2.70;;
80637;SDS011;69991;51.760;19.528;2023-07-30T01:08:34;6.00;;;3.10;;
80637;SDS011;69991;51.760;19.528;2023-07-30T01:11:03;6.70;;;3.40;;
80637;SDS011;69991;51.760;19.528;2023-07-30T01:13:33;6.00;;;3.40;;
80637;SDS011;69991;51.760;19.528;2023-07-30T01:16:02;5.50;;;3.40;;
80637;SDS011;69991;51.760;19.528;2023-07-30T01:18:33;5.30;;;3.60;;
80637;SDS011;69991;51.760;19.528;2023-07-30T01:21:02;6.50;;;3.30;;
80637;SDS011;69991;51.760;19.528;2023-07-30T01:23:31;4.80;;;2.90;;
80637;SDS011;69991;51.760;19.528;2023-07-30T01:26:06;4.10;;;2.60;;
80637;SDS011;69991;51.760;19.528;2023-07-30T01:31:08;5.20;;;2.60;;
80637;SDS011;69991;51.760;19.528;2023-07-30T01:33:38;4.80;;;2.50;;
80637;SDS011;69991;51.760;19.528;2023-07-30T01:36:08;5.70;;;2.90;;
80637;SDS011;69991;51.760;19.528;2023-07-30T01:41:09;4.50;;;2.90;;
80637;SDS011;69991;51.760;19.528;2023-07-30T01:43:38;4.30;;;2.60;;
80637;SDS011;69991;51.760;19.528;2023-07-30T01:46:07;4.80;;;2.30;;
80637;SDS011;69991;51.760;19.528;2023-07-30T01:48:37;5.10;;;2.30;;
80637;SDS011;69991;51.760;19.528;2023-07-30T01:51:06;4.80;;;2.80;;
80637;SDS011;69991;51.760;19.528;2023-07-30T01:53:35;6.10;;;2.60;;
80637;SDS011;69991;51.760;19.528;2023-07-30T01:56:04;5.10;;;2.70;;
80637;SDS011;69991;51.760;19.528;2023-07-30T01:58:33;5.90;;;2.90;;
80637;SDS011;69991;51.760;19.528;2023-07-30T02:01:02;3.80;;;2.20;;
80637;SDS011;69991;51.760;19.528;2023-07-30T02:03:31;3.90;;;2.50;;
80637;SDS011;69991;51.760;19.528;2023-07-30T02:06:01;4.40;;;2.40;;
80637;SDS011;69991;51.760;19.528;2023-07-30T02:08:30;4.30;;;3.00;;
80637;SDS011;69991;51.760;19.528;2023-07-30T02:10:59;4.80;;;2.40;;
80637;SDS011;69991;51.760;19.528;2023-07-30T02:13:28;4.90;;;2.70;;
80637;SDS011;69991;51.760;19.528;2023-07-30T02:15:58;5.30;;;3.20;;
80637;SDS011;69991;51.760;19.528;2023-07-30T02:18:27;5.60;;;3.00;;
80637;SDS011;69991;51.760;19.528;2023-07-30T02:20:56;5.40;;;3.40;;
80637;SDS011;69991;51.760;19.528;2023-07-30T02:23:25;6.40;;;3.20;;
80637;SDS011;69991;51.760;19.528;2023-07-30T02:25:54;5.10;;;3.20;;
80637;SDS011;69991;51.760;19.528;2023-07-30T02:28:23;6.90;;;3.80;;
80637;SDS011;69991;51.760;19.528;2023-07-30T02:30:53;6.30;;;3.90;;
80637;SDS011;69991;51.760;19.528;2023-07-30T02:33:22;6.80;;;3.90;;
80637;SDS011;69991;51.760;19.528;2023-07-30T02:35:51;6.10;;;4.50;;
80637;SDS011;69991;51.760;19.528;2023-07-30T02:38:20;6.50;;;4.30;;
80637;SDS011;69991;51.760;19.528;2023-07-30T02:40:49;5.70;;;3.70;;
80637;SDS011;69991;51.760;19.528;2023-07-30T02:43:19;6.00;;;4.30;;
80637;SDS011;69991;51.760;19.528;2023-07-30T02:45:48;6.60;;;4.40;;
80637;SDS011;69991;51.760;19.528;2023-07-30T02:48:18;6.80;;;4.40;;
80637;SDS011;69991;51.760;19.528;2023-07-30T02:50:47;6.30;;;4.10;;
80637;SDS011;69991;51.760;19.528;2023-07-30T02:53:16;6.00;;;3.80;;
80637;SDS011;69991;51.760;19.528;2023-07-30T02:55:46;6.90;;;4.00;;
80637;SDS011;69991;51.760;19.528;2023-07-30T02:58:15;5.80;;;3.90;;
80637;SDS011;69991;51.760;19.528;2023-07-30T03:00:44;7.20;;;4.00;;
80637;SDS011;69991;51.760;19.528;2023-07-30T03:03:13;6.20;;;4.00;;
80637;SDS011;69991;51.760;19.528;2023-07-30T03:05:42;5.50;;;3.70;;
80637;SDS011;69991;51.760;19.528;2023-07-30T03:08:12;6.50;;;4.40;;
80637;SDS011;69991;51.760;19.528;2023-07-30T03:10:42;7.90;;;4.10;;
80637;SDS011;69991;51.760;19.528;2023-07-30T03:13:11;6.30;;;4.00;;
80637;SDS011;69991;51.760;19.528;2023-07-30T03:15:40;7.70;;;4.60;;
80637;SDS011;69991;51.760;19.528;2023-07-30T03:18:09;7.80;;;4.30;;
80637;SDS011;69991;51.760;19.528;2023-07-30T03:20:38;6.50;;;4.10;;
80637;SDS011;69991;51.760;19.528;2023-07-30T03:23:07;7.20;;;3.90;;
80637;SDS011;69991;51.760;19.528;2023-07-30T03:25:36;6.50;;;4.10;;
80637;SDS011;69991;51.760;19.528;2023-07-30T03:28:05;8.10;;;4.50;;
80637;SDS011;69991;51.760;19.528;2023-07-30T03:30:35;6.80;;;5.10;;
80637;SDS011;69991;51.760;19.528;2023-07-30T03:33:04;6.50;;;4.20;;
80637;SDS011;69991;51.760;19.528;2023-07-30T03:35:33;6.90;;;4.50;;
80637;SDS011;69991;51.760;19.528;2023-07-30T03:38:02;7.20;;;4.80;;
80637;SDS011;69991;51.760;19.528;2023-07-30T03:40:32;8.00;;;5.40;;
80637;SDS011;69991;51.760;19.528;2023-07-30T03:43:01;6.80;;;4.70;;
80637;SDS011;69991;51.760;19.528;2023-07-30T03:45:30;8.40;;;5.00;;
80637;SDS011;69991;51.760;19.528;2023-07-30T03:47:59;7.10;;;5.00;;
80637;SDS011;69991;51.760;19.528;2023-07-30T03:50:29;7.40;;;5.00;;
80637;SDS011;69991;51.760;19.528;2023-07-30T03:52:58;9.20;;;4.70;;
80637;SDS011;69991;51.760;19.528;2023-07-30T03:55:27;9.80;;;5.50;;
80637;SDS011;69991;51.760;19.528;2023-07-30T03:57:57;8.30;;;5.30;;
80637;SDS011;69991;51.760;19.528;2023-07-30T04:00:27;7.60;;;4.80;;
80637;SDS011;69991;51.760;19.528;2023-07-30T04:02:58;8.80;;;5.80;;
80637;SDS011;69991;51.760;19.528;2023-07-30T04:05:28;9.40;;;5.60;;
80637;SDS011;69991;51.760;19.528;2023-07-30T04:07:58;8.10;;;5.70;;
80637;SDS011;69991;51.760;19.528;2023-07-30T04:10:27;9.80;;;5.80;;
80637;SDS011;69991;51.760;19.528;2023-07-30T04:12:56;10.00;;;5.70;;
80637;SDS011;69991;51.760;19.528;2023-07-30T04:15:25;9.50;;;5.20;;
80637;SDS011;69991;51.760;19.528;2023-07-30T04:17:55;8.20;;;5.50;;
80637;SDS011;69991;51.760;19.528;2023-07-30T04:20:24;8.70;;;5.60;;
80637;SDS011;69991;51.760;19.528;2023-07-30T04:22:54;10.70;;;5.90;;
80637;SDS011;69991;51.760;19.528;2023-07-30T04:25:23;8.90;;;5.90;;
80637;SDS011;69991;51.760;19.528;2023-07-30T04:27:52;9.20;;;6.00;;
80637;SDS011;69991;51.760;19.528;2023-07-30T04:30:21;8.80;;;6.30;;
80637;SDS011;69991;51.760;19.528;2023-07-30T04:32:51;8.40;;;5.90;;
80637;SDS011;69991;51.760;19.528;2023-07-30T04:35:20;8.20;;;5.80;;
80637;SDS011;69991;51.760;19.528;2023-07-30T04:37:49;8.00;;;5.50;;
80637;SDS011;69991;51.760;19.528;2023-07-30T04:40:18;7.30;;;5.10;;
80637;SDS011;69991;51.760;19.528;2023-07-30T04:42:48;8.20;;;5.50;;
80637;SDS011;69991;51.760;19.528;2023-07-30T04:45:17;7.60;;;5.30;;
80637;SDS011;69991;51.760;19.528;2023-07-30T04:47:46;7.60;;;5.20;;
80637;SDS011;69991;51.760;19.528;2023-07-30T04:50:15;8.90;;;5.50;;
80637;SDS011;69991;51.760;19.528;2023-07-30T04:52:44;8.20;;;5.30;;
80637;SDS011;69991;51.760;19.528;2023-07-30T04:55:14;8.00;;;5.40;;
80637;SDS011;69991;51.760;19.528;2023-07-30T04:57:43;8.20;;;5.10;;
80637;SDS011;69991;51.760;19.528;2023-07-30T05:00:12;7.70;;;5.90;;
80637;SDS011;69991;51.760;19.528;2023-07-30T05:02:41;8.10;;;5.30;;
80637;SDS011;69991;51.760;19.528;2023-07-30T05:05:11;9.70;;;5.60;;
80637;SDS011;69991;51.760;19.528;2023-07-30T05:07:40;8.30;;;5.70;;
80637;SDS011;69991;51.760;19.528;2023-07-30T05:10:09;10.10;;;6.80;;
80637;SDS011;69991;51.760;19.528;2023-07-30T05:12:39;10.90;;;7.50;;
80637;SDS011;69991;51.760;19.528;2023-07-30T05:15:08;10.80;;;7.10;;
80637;SDS011;69991;51.760;19.528;2023-07-30T05:17:38;10.80;;;7.50;;
80637;SDS011;69991;51.760;19.528;2023-07-30T05:20:07;12.50;;;8.50;;
80637;SDS011;69991;51.760;19.528;2023-07-30T05:22:37;11.20;;;8.20;;
80637;SDS011;69991;51.760;19.528;2023-07-30T05:25:06;13.80;;;8.40;;
80637;SDS011;69991;51.760;19.528;2023-07-30T05:27:37;11.80;;;8.90;;
80637;SDS011;69991;51.760;19.528;2023-07-30T05:30:06;11.60;;;8.40;;
80637;SDS011;69991;51.760;19.528;2023-07-30T05:32:36;11.10;;;7.60;;
80637;SDS011;69991;51.760;19.528;2023-07-30T05:35:05;11.40;;;8.70;;
80637;SDS011;69991;51.760;19.528;2023-07-30T05:37:35;12.40;;;8.20;;
80637;SDS011;69991;51.760;19.528;2023-07-30T05:40:05;12.50;;;9.30;;
80637;SDS011;69991;51.760;19.528;2023-07-30T05:42:34;12.00;;;8.50;;
80637;SDS011;69991;51.760;19.528;2023-07-30T05:45:04;12.50;;;7.60;;
80637;SDS011;69991;51.760;19.528;2023-07-30T05:47:33;11.40;;;8.70;;
80637;SDS011;69991;51.760;19.528;2023-07-30T05:50:02;11.30;;;7.70;;
80637;SDS011;69991;51.760;19.528;2023-07-30T05:52:32;9.90;;;7.00;;
80637;SDS011;69991;51.760;19.528;2023-07-30T05:55:01;11.60;;;7.80;;
80637;SDS011;69991;51.760;19.528;2023-07-30T05:57:31;11.50;;;8.20;;
80637;SDS011;69991;51.760;19.528;2023-07-30T06:00:00;10.90;;;8.10;;
80637;SDS011;69991;51.760;19.528;2023-07-30T06:02:29;12.50;;;8.00;;
80637;SDS011;69991;51.760;19.528;2023-07-30T06:04:59;10.50;;;8.20;;
80637;SDS011;69991;51.760;19.528;2023-07-30T06:07:28;9.50;;;7.30;;
80637;SDS011;69991;51.760;19.528;2023-07-30T06:09:57;10.90;;;8.20;;
80637;SDS011;69991;51.760;19.528;2023-07-30T06:12:26;12.60;;;7.90;;
80637;SDS011;69991;51.760;19.528;2023-07-30T06:14:56;14.00;;;8.60;;
80637;SDS011;69991;51.760;19.528;2023-07-30T06:17:25;12.40;;;8.60;;
80637;SDS011;69991;51.760;19.528;2023-07-30T06:19:54;11.00;;;7.90;;
80637;SDS011;69991;51.760;19.528;2023-07-30T06:22:23;11.30;;;7.90;;
80637;SDS011;69991;51.760;19.528;2023-07-30T06:24:52;9.90;;;7.30;;
80637;SDS011;69991;51.760;19.528;2023-07-30T06:27:22;9.40;;;7.40;;
80637;SDS011;69991;51.760;19.528;2023-07-30T06:29:51;10.30;;;7.70;;
80637;SDS011;69991;51.760;19.528;2023-07-30T06:32:20;14.40;;;10.20;;
80637;SDS011;69991;51.760;19.528;2023-07-30T06:34:49;10.70;;;7.80;;
80637;SDS011;69991;51.760;19.528;2023-07-30T06:37:19;11.10;;;7.90;;
80637;SDS011;69991;51.760;19.528;2023-07-30T06:39:48;10.60;;;7.80;;
80637;SDS011;69991;51.760;19.528;2023-07-30T06:42:17;10.10;;;8.00;;
80637;SDS011;69991;51.760;19.528;2023-07-30T06:44:46;12.00;;;8.40;;
80637;SDS011;69991;51.760;19.528;2023-07-30T06:47:15;12.10;;;7.50;;
80637;SDS011;69991;51.760;19.528;2023-07-30T06:49:44;10.80;;;8.20;;
80637;SDS011;69991;51.760;19.528;2023-07-30T06:52:13;13.40;;;8.10;;
80637;SDS011;69991;51.760;19.528;2023-07-30T06:54:43;9.60;;;7.20;;
80637;SDS011;69991;51.760;19.528;2023-07-30T06:57:12;11.10;;;8.40;;
80637;SDS011;69991;51.760;19.528;2023-07-30T06:59:41;9.00;;;7.20;;
80637;SDS011;69991;51.760;19.528;2023-07-30T07:02:11;10.70;;;7.90;;
80637;SDS011;69991;51.760;19.528;2023-07-30T07:04:40;8.90;;;7.20;;
80637;SDS011;69991;51.760;19.528;2023-07-30T07:07:09;10.40;;;7.60;;
80637;SDS011;69991;51.760;19.528;2023-07-30T07:09:38;9.50;;;7.30;;
80637;SDS011;69991;51.760;19.528;2023-07-30T07:12:08;8.40;;;5.90;;
80637;SDS011;69991;51.760;19.528;2023-07-30T07:14:37;10.20;;;6.80;;
80637;SDS011;69991;51.760;19.528;2023-07-30T07:17:06;10.60;;;7.10;;
80637;SDS011;69991;51.760;19.528;2023-07-30T07:19:35;11.30;;;7.10;;
80637;SDS011;69991;51.760;19.528;2023-07-30T07:22:05;9.80;;;7.90;;
80637;SDS011;69991;51.760;19.528;2023-07-30T07:24:34;9.70;;;7.20;;
80637;SDS011;69991;51.760;19.528;2023-07-30T07:27:04;8.90;;;6.40;;
80637;SDS011;69991;51.760;19.528;2023-07-30T07:29:33;9.70;;;6.50;;
80637;SDS011;69991;51.760;19.528;2023-07-30T07:32:03;10.20;;;7.30;;
80637;SDS011;69991;51.760;19.528;2023-07-30T07:34:32;13.10;;;7.00;;
80637;SDS011;69991;51.760;19.528;2023-07-30T07:37:02;11.60;;;7.40;;
80637;SDS011;69991;51.760;19.528;2023-07-30T07:39:32;10.20;;;8.00;;
80637;SDS011;69991;51.760;19.528;2023-07-30T07:42:02;9.30;;;6.90;;
80637;SDS011;69991;51.760;19.528;2023-07-30T07:44:31;10.30;;;7.20;;
80637;SDS011;69991;51.760;19.528;2023-07-30T07:47:00;10.90;;;7.10;;
80637;SDS011;69991;51.760;19.528;2023-07-30T07:49:29;9.90;;;6.80;;
80637;SDS011;69991;51.760;19.528;2023-07-30T07:51:58;10.30;;;7.00;;
80637;SDS011;69991;51.760;19.528;2023-07-30T07:54:27;8.80;;;6.60;;
80637;SDS011;69991;51.760;19.528;2023-07-30T07:56:57;9.90;;;7.50;;
80637;SDS011;69991;51.760;19.528;2023-07-30T07:59:26;10.90;;;7.20;;
80637;SDS011;69991;51.760;19.528;2023-07-30T08:01:56;9.10;;;7.10;;
80637;SDS011;69991;51.760;19.528;2023-07-30T08:04:26;10.50;;;7.40;;
80637;SDS011;69991;51.760;19.528;2023-07-30T08:06:55;10.00;;;6.50;;
80637;SDS011;69991;51.760;19.528;2023-07-30T08:09:29;9.30;;;6.60;;
80637;SDS011;69991;51.760;19.528;2023-07-30T08:11:59;10.40;;;6.70;;
80637;SDS011;69991;51.760;19.528;2023-07-30T08:14:29;7.50;;;5.60;;
80637;SDS011;69991;51.760;19.528;2023-07-30T08:16:59;7.90;;;4.70;;
80637;SDS011;69991;51.760;19.528;2023-07-30T08:19:28;6.50;;;4.80;;
80637;SDS011;69991;51.760;19.528;2023-07-30T08:21:57;6.90;;;4.70;;
80637;SDS011;69991;51.760;19.528;2023-07-30T08:24:27;8.60;;;5.50;;
80637;SDS011;69991;51.760;19.528;2023-07-30T08:26:56;6.10;;;4.30;;
80637;SDS011;69991;51.760;19.528;2023-07-30T08:29:26;7.60;;;5.30;;
80637;SDS011;69991;51.760;19.528;2023-07-30T08:31:55;6.80;;;4.60;;
80637;SDS011;69991;51.760;19.528;2023-07-30T08:34:24;7.50;;;5.20;;
80637;SDS011;69991;51.760;19.528;2023-07-30T08:36:53;7.90;;;5.30;;
80637;SDS011;69991;51.760;19.528;2023-07-30T08:39:22;7.10;;;5.50;;
80637;SDS011;69991;51.760;19.528;2023-07-30T08:41:52;7.20;;;5.60;;
80637;SDS011;69991;51.760;19.528;2023-07-30T08:44:21;7.30;;;5.20;;
80637;SDS011;69991;51.760;19.528;2023-07-30T08:46:50;7.30;;;5.00;;
80637;SDS011;69991;51.760;19.528;2023-07-30T08:49:22;7.90;;;5.10;;
80637;SDS011;69991;51.760;19.528;2023-07-30T08:51:52;7.50;;;5.30;;
80637;SDS011;69991;51.760;19.528;2023-07-30T08:54:22;9.70;;;6.40;;
80637;SDS011;69991;51.760;19.528;2023-07-30T08:56:51;8.20;;;5.90;;
80637;SDS011;69991;51.760;19.528;2023-07-30T08:59:21;8.00;;;5.70;;
80637;SDS011;69991;51.760;19.528;2023-07-30T09:01:51;8.10;;;5.90;;
80637;SDS011;69991;51.760;19.528;2023-07-30T09:04:21;7.30;;;5.00;;
80637;SDS011;69991;51.760;19.528;2023-07-30T09:06:50;6.70;;;5.20;;
80637;SDS011;69991;51.760;19.528;2023-07-30T09:09:21;8.50;;;5.70;;
80637;SDS011;69991;51.760;19.528;2023-07-30T09:11:51;7.00;;;5.30;;
80637;SDS011;69991;51.760;19.528;2023-07-30T09:14:23;6.70;;;4.80;;
80637;SDS011;69991;51.760;19.528;2023-07-30T09:16:58;6.50;;;4.70;;
80637;SDS011;69991;51.760;19.528;2023-07-30T09:19:28;7.40;;;5.00;;
80637;SDS011;69991;51.760;19.528;2023-07-30T09:21:57;6.60;;;4.90;;
80637;SDS011;69991;51.760;19.528;2023-07-30T09:24:26;7.50;;;5.70;;
80637;SDS011;69991;51.760;19.528;2023-07-30T09:26:55;7.20;;;5.40;;
80637;SDS011;69991;51.760;19.528;2023-07-30T09:29:26;8.00;;;5.40;;
80637;SDS011;69991;51.760;19.528;2023-07-30T09:31:55;7.40;;;5.10;;
80637;SDS011;69991;51.760;19.528;2023-07-30T09:34:25;6.80;;;4.50;;
80637;SDS011;69991;51.760;19.528;2023-07-30T09:36:54;6.30;;;4.50;;
80637;SDS011;69991;51.760;19.528;2023-07-30T09:39:24;7.80;;;4.70;;
80637;SDS011;69991;51.760;19.528;2023-07-30T09:41:59;7.00;;;4.70;;
80637;SDS011;69991;51.760;19.528;2023-07-30T09:44:29;8.70;;;5.30;;
80637;SDS011;69991;51.760;19.528;2023-07-30T09:47:00;8.60;;;4.80;;
80637;SDS011;69991;51.760;19.528;2023-07-30T09:49:33;5.80;;;4.40;;
80637;SDS011;69991;51.760;19.528;2023-07-30T09:52:04;6.80;;;4.90;;
80637;SDS011;69991;51.760;19.528;2023-07-30T09:54:34;7.40;;;4.80;;
80637;SDS011;69991;51.760;19.528;2023-07-30T09:57:05;7.30;;;5.20;;
80637;SDS011;69991;51.760;19.528;2023-07-30T09:59:34;8.30;;;5.30;;
80637;SDS011;69991;51.760;19.528;2023-07-30T10:02:04;7.80;;;4.00;;
80637;SDS011;69991;51.760;19.528;2023-07-30T10:04:33;7.70;;;4.50;;
80637;SDS011;69991;51.760;19.528;2023-07-30T10:07:04;6.90;;;4.70;;
80637;SDS011;69991;51.760;19.528;2023-07-30T10:09:39;5.00;;;3.70;;
80637;SDS011;69991;51.760;19.528;2023-07-30T10:12:16;6.00;;;4.20;;
80637;SDS011;69991;51.760;19.528;2023-07-30T10:14:47;6.70;;;4.30;;
80637;SDS011;69991;51.760;19.528;2023-07-30T10:17:16;6.70;;;4.60;;
80637;SDS011;69991;51.760;19.528;2023-07-30T10:19:46;6.10;;;4.40;;
80637;SDS011;69991;51.760;19.528;2023-07-30T10:24:57;6.50;;;5.00;;
80637;SDS011;69991;51.760;19.528;2023-07-30T10:27:40;6.40;;;4.70;;
80637;SDS011;69991;51.760;19.528;2023-07-30T10:30:15;5.80;;;4.50;;
80637;SDS011;69991;51.760;19.528;2023-07-30T10:35:43;6.30;;;4.10;;
80637;SDS011;69991;51.760;19.528;2023-07-30T10:38:16;7.00;;;3.90;;
80637;SDS011;69991;51.760;19.528;2023-07-30T10:41:07;5.80;;;3.90;;
80637;SDS011;69991;51.760;19.528;2023-07-30T10:43:40;6.50;;;4.80;;
80637;SDS011;69991;51.760;19.528;2023-07-30T10:46:10;5.80;;;4.00;;
80637;SDS011;69991;51.760;19.528;2023-07-30T10:48:41;5.90;;;3.90;;
80637;SDS011;69991;51.760;19.528;2023-07-30T10:51:13;5.10;;;3.60;;
80637;SDS011;69991;51.760;19.528;2023-07-30T10:53:47;5.30;;;3.40;;
80637;SDS011;69991;51.760;19.528;2023-07-30T10:56:21;6.00;;;4.30;;
80637;SDS011;69991;51.760;19.528;2023-07-30T10:58:52;5.50;;;4.10;;
80637;SDS011;69991;51.760;19.528;2023-07-30T11:01:25;5.40;;;3.80;;
80637;SDS011;69991;51.760;19.528;2023-07-30T11:03:55;6.00;;;3.70;;
80637;SDS011;69991;51.760;19.528;2023-07-30T11:06:26;5.00;;;3.60;;
80637;SDS011;69991;51.760;19.528;2023-07-30T11:08:56;6.40;;;4.60;;
80637;SDS011;69991;51.760;19.528;2023-07-30T11:11:25;5.00;;;3.60;;
80637;SDS011;69991;51.760;19.528;2023-07-30T11:13:54;5.60;;;3.70;;
80637;SDS011;69991;51.760;19.528;2023-07-30T11:16:24;4.50;;;3.10;;
80637;SDS011;69991;51.760;19.528;2023-07-30T11:18:53;4.30;;;3.00;;
80637;SDS011;69991;51.760;19.528;2023-07-30T11:21:22;4.70;;;3.20;;
80637;SDS011;69991;51.760;19.528;2023-07-30T11:23:51;5.20;;;3.00;;
80637;SDS011;69991;51.760;19.528;2023-07-30T11:26:21;6.40;;;2.80;;
80637;SDS011;69991;51.760;19.528;2023-07-30T11:28:50;5.00;;;3.30;;
80637;SDS011;69991;51.760;19.528;2023-07-30T11:31:19;4.40;;;2.70;;
80637;SDS011;69991;51.760;19.528;2023-07-30T11:33:51;4.70;;;3.10;;
80637;SDS011;69991;51.760;19.528;2023-07-30T11:36:22;4.70;;;3.00;;
80637;SDS011;69991;51.760;19.528;2023-07-30T11:38:53;4.30;;;2.90;;
80637;SDS011;69991;51.760;19.528;2023-07-30T11:41:23;4.40;;;2.60;;
80637;SDS011;69991;51.760;19.528;2023-07-30T11:43:53;4.20;;;3.00;;
80637;SDS011;69991;51.760;19.528;2023-07-30T11:46:23;4.40;;;2.60;;
80637;SDS011;69991;51.760;19.528;2023-07-30T11:48:53;6.00;;;2.80;;
80637;SDS011;69991;51.760;19.528;2023-07-30T11:51:43;3.70;;;2.80;;
80637;SDS011;69991;51.760;19.528;2023-07-30T11:54:20;4.50;;;2.70;;
80637;SDS011;69991;51.760;19.528;2023-07-30T11:56:54;4.90;;;2.30;;
80637;SDS011;69991;51.760;19.528;2023-07-30T11:59:24;4.20;;;2.60;;
80637;SDS011;69991;51.760;19.528;2023-07-30T12:01:54;4.90;;;2.20;;
80637;SDS011;69991;51.760;19.528;2023-07-30T12:04:23;3.80;;;2.50;;
80637;SDS011;69991;51.760;19.528;2023-07-30T12:06:53;3.60;;;2.00;;
80637;SDS011;69991;51.760;19.528;2023-07-30T12:09:23;3.60;;;1.70;;
80637;SDS011;69991;51.760;19.528;2023-07-30T12:11:55;3.40;;;1.70;;
80637;SDS011;69991;51.760;19.528;2023-07-30T12:17:01;3.10;;;1.70;;
80637;SDS011;69991;51.760;19.528;2023-07-30T12:19:32;3.40;;;1.70;;
80637;SDS011;69991;51.760;19.528;2023-07-30T12:22:01;3.80;;;1.70;;
80637;SDS011;69991;51.760;19.528;2023-07-30T12:24:31;2.80;;;1.50;;
80637;SDS011;69991;51.760;19.528;2023-07-30T12:27:00;3.50;;;1.60;;
80637;SDS011;69991;51.760;19.528;2023-07-30T12:29:30;3.10;;;1.60;;
80637;SDS011;69991;51.760;19.528;2023-07-30T12:31:59;3.10;;;1.70;;
80637;SDS011;69991;51.760;19.528;2023-07-30T12:34:32;3.30;;;1.90;;
80637;SDS011;69991;51.760;19.528;2023-07-30T12:37:01;3.30;;;1.40;;
80637;SDS011;69991;51.760;19.528;2023-07-30T12:39:30;3.90;;;1.80;;
80637;SDS011;69991;51.760;19.528;2023-07-30T12:42:00;3.40;;;2.10;;
80637;SDS011;69991;51.760;19.528;2023-07-30T12:44:29;3.30;;;1.60;;
80637;SDS011;69991;51.760;19.528;2023-07-30T12:46:58;3.30;;;1.70;;
80637;SDS011;69991;51.760;19.528;2023-07-30T12:49:27;3.30;;;1.60;;
80637;SDS011;69991;51.760;19.528;2023-07-30T12:51:56;3.10;;;1.70;;
80637;SDS011;69991;51.760;19.528;2023-07-30T12:54:26;4.90;;;2.10;;
80637;SDS011;69991;51.760;19.528;2023-07-30T12:56:55;3.40;;;1.90;;
80637;SDS011;69991;51.760;19.528;2023-07-30T12:59:24;3.30;;;1.60;;
80637;SDS011;69991;51.760;19.528;2023-07-30T13:01:54;3.60;;;1.70;;
80637;SDS011;69991;51.760;19.528;2023-07-30T13:04:24;3.20;;;1.80;;
80637;SDS011;69991;51.760;19.528;2023-07-30T13:06:56;4.00;;;2.00;;
80637;SDS011;69991;51.760;19.528;2023-07-30T13:09:25;3.30;;;1.70;;
80637;SDS011;69991;51.760;19.528;2023-07-30T13:11:54;3.40;;;1.80;;
80637;SDS011;69991;51.760;19.528;2023-07-30T13:14:23;4.30;;;1.70;;
80637;SDS011;69991;51.760;19.528;2023-07-30T13:16:52;3.50;;;1.70;;
80637;SDS011;69991;51.760;19.528;2023-07-30T13:19:22;3.30;;;1.70;;
80637;SDS011;69991;51.760;19.528;2023-07-30T13:21:51;3.50;;;1.80;;
80637;SDS011;69991;51.760;19.528;2023-07-30T13:24:20;4.30;;;1.50;;
80637;SDS011;69991;51.760;19.528;2023-07-30T13:26:49;4.10;;;1.70;;
80637;SDS011;69991;51.760;19.528;2023-07-30T13:29:18;3.20;;;1.70;;
80637;SDS011;69991;51.760;19.528;2023-07-30T13:31:48;3.30;;;1.90;;
80637;SDS011;69991;51.760;19.528;2023-07-30T13:34:17;4.00;;;1.60;;
80637;SDS011;69991;51.760;19.528;2023-07-30T13:36:46;3.10;;;1.50;;
80637;SDS011;69991;51.760;19.528;2023-07-30T13:39:15;2.90;;;1.60;;
80637;SDS011;69991;51.760;19.528;2023-07-30T13:41:45;5.90;;;4.00;;
80637;SDS011;69991;51.760;19.528;2023-07-30T13:44:14;3.70;;;1.80;;
80637;SDS011;69991;51.760;19.528;2023-07-30T13:46:43;3.50;;;2.00;;
80637;SDS011;69991;51.760;19.528;2023-07-30T13:49:13;3.10;;;1.70;;
80637;SDS011;69991;51.760;19.528;2023-07-30T13:51:42;3.40;;;1.50;;
80637;SDS011;69991;51.760;19.528;2023-07-30T13:54:11;3.30;;;1.60;;
80637;SDS011;69991;51.760;19.528;2023-07-30T13:56:40;3.00;;;1.70;;
80637;SDS011;69991;51.760;19.528;2023-07-30T13:59:10;3.20;;;1.60;;
80637;SDS011;69991;51.760;19.528;2023-07-30T14:01:39;3.00;;;1.50;;
80637;SDS011;69991;51.760;19.528;2023-07-30T14:04:09;3.60;;;1.80;;
80637;SDS011;69991;51.760;19.528;2023-07-30T14:06:38;2.90;;;1.50;;
80637;SDS011;69991;51.760;19.528;2023-07-30T14:09:07;3.20;;;1.40;;
80637;SDS011;69991;51.760;19.528;2023-07-30T14:11:36;3.90;;;1.70;;
80637;SDS011;69991;51.760;19.528;2023-07-30T14:14:07;3.10;;;1.50;;
80637;SDS011;69991;51.760;19.528;2023-07-30T14:16:36;2.90;;;1.50;;
80637;SDS011;69991;51.760;19.528;2023-07-30T14:19:05;3.40;;;1.60;;
80637;SDS011;69991;51.760;19.528;2023-07-30T14:21:34;3.00;;;1.50;;
80637;SDS011;69991;51.760;19.528;2023-07-30T14:24:05;2.90;;;1.60;;
80637;SDS011;69991;51.760;19.528;2023-07-30T14:26:34;3.60;;;1.80;;
80637;SDS011;69991;51.760;19.528;2023-07-30T14:29:03;3.00;;;1.50;;
80637;SDS011;69991;51.760;19.528;2023-07-30T14:31:32;3.20;;;1.50;;
80637;SDS011;69991;51.760;19.528;2023-07-30T14:34:01;3.90;;;1.60;;
80637;SDS011;69991;51.760;19.528;2023-07-30T14:36:31;3.20;;;1.50;;
80637;SDS011;69991;51.760;19.528;2023-07-30T14:39:00;3.50;;;1.40;;
80637;SDS011;69991;51.760;19.528;2023-07-30T14:41:29;4.50;;;1.60;;
80637;SDS011;69991;51.760;19.528;2023-07-30T14:43:58;3.90;;;1.30;;
80637;SDS011;69991;51.760;19.528;2023-07-30T14:46:27;2.70;;;1.30;;
80637;SDS011;69991;51.760;19.528;2023-07-30T14:48:56;3.20;;;1.50;;
80637;SDS011;69991;51.760;19.528;2023-07-30T14:51:25;3.70;;;1.50;;
80637;SDS011;69991;51.760;19.528;2023-07-30T14:53:55;3.30;;;1.50;;
80637;SDS011;69991;51.760;19.528;2023-07-30T14:56:24;3.20;;;1.60;;
80637;SDS011;69991;51.760;19.528;2023-07-30T14:58:53;3.20;;;1.50;;
80637;SDS011;69991;51.760;19.528;2023-07-30T15:01:22;3.00;;;1.40;;